Time;durP1;ratioP1;P1;durP2;ratioP2;P2;SDS_P1;SDS_P2;PMS_P1;PMS_P2;Temp;Humidity;BMP_temperature;BMP_pressure;BME280_temperature;BME280_humidity;BME280_pressure;Samples;Min_cycle;Max_cycle;Signal;HPM_P1;HPM_P2
2022/09/07 00:01:54;;;;;;;7.67;4.20;;;17.40;98.70;;;17.69;64.39;95439.56;6176871;23;20954;-55
2022/09/07 00:04:21;;;;;;;7.27;3.87;;;17.30;98.70;;;17.65;64.04;95439.09;6177169;23;20858;-55
2022/09/07 00:06:48;;;;;;;5.43;3.73;;;17.30;98.70;;;17.62;64.26;95449.25;6176341;23;20460;-55
2022/09/07 00:09:15;;;;;;;7.73;4.23;;;17.20;98.80;;;17.56;64.14;95445.41;6176199;23;21056;-56
2022/09/07 00:11:42;;;;;;;6.53;4.67;;;17.20;98.90;;;17.52;64.19;95441.44;6176499;23;20444;-56
2022/09/07 00:14:10;;;;;;;6.10;5.03;;;17.10;98.80;;;17.50;64.83;95443.44;6175610;23;20425;-55
2022/09/07 00:16:37;;;;;;;8.10;3.90;;;17.10;99.10;;;17.46;64.80;95440.28;6175931;23;20460;-55
2022/09/07 00:19:05;;;;;;;4.03;3.73;;;17.10;99.20;;;17.43;64.68;95447.75;6175955;23;20422;-54
2022/09/07 00:21:32;;;;;;;5.77;4.40;;;17.10;99.20;;;17.39;64.53;95439.28;6175712;23;20456;-55
2022/09/07 00:24:00;;;;;;;4.57;4.13;;;17.00;99.10;;;17.36;65.02;95436.97;6175969;23;20421;-56
2022/09/07 00:26:30;;;;;;;7.23;4.50;;;17.00;99.30;;;17.32;64.91;95439.16;6176146;23;20802;-56
2022/09/07 00:28:57;;;;;;;6.13;4.37;;;17.00;99.50;;;17.30;65.01;95440.31;6176188;23;20503;-55
2022/09/07 00:31:25;;;;;;;4.30;4.00;;;16.90;99.60;;;17.26;65.26;95437.16;6176427;23;20418;-55
2022/09/07 00:33:53;;;;;;;7.67;4.33;;;16.90;99.50;;;17.24;65.05;95433.81;6176403;23;20437;-55
2022/09/07 00:36:22;;;;;;;6.13;4.80;;;16.90;99.60;;;17.18;65.61;95435.34;6175937;23;20532;-55
2022/09/07 00:38:49;;;;;;;7.03;5.00;;;16.80;99.80;;;17.17;65.18;95436.31;6176371;23;20587;-56
2022/09/07 00:41:16;;;;;;;5.10;4.53;;;16.80;99.80;;;17.14;65.55;95435.84;6176146;23;20409;-55
2022/09/07 00:43:46;;;;;;;8.40;4.93;;;16.80;99.90;;;17.11;65.61;95436.97;6175697;23;20425;-56
2022/09/07 00:46:14;;;;;;;5.40;4.13;;;16.80;99.90;;;17.09;65.76;95433.66;6175759;23;20402;-56
2022/09/07 00:48:45;;;;;;;5.90;4.60;;;16.70;99.90;;;17.08;65.68;95439.16;6175860;23;20429;-56
2022/09/07 00:51:16;;;;;;;10.60;5.40;;;16.70;99.90;;;17.04;66.01;95433.34;6176252;23;20726;-55
2022/09/07 00:53:52;;;;;;;7.27;4.90;;;16.70;99.90;;;16.99;66.11;95436.50;6176477;23;20770;-55
2022/09/07 00:56:20;;;;;;;4.80;4.40;;;16.60;99.90;;;16.97;66.12;95435.00;6175744;23;20389;-56
2022/09/07 00:58:47;;;;;;;4.40;4.00;;;16.60;99.90;;;16.94;66.19;95437.97;6176087;23;20432;-56
2022/09/07 01:01:15;;;;;;;13.80;5.30;;;16.60;99.90;;;16.91;nan;95428.50;6176735;23;20759;-56
2022/09/07 01:03:45;;;;;;;8.83;4.30;;;16.60;99.90;;;16.89;66.58;95432.34;6176077;23;20440;-53
2022/09/07 01:06:15;;;;;;;5.67;4.70;;;16.50;99.90;;;16.88;66.39;95430.66;6175779;23;20510;-56
2022/09/07 01:08:43;;;;;;;5.57;4.60;;;16.50;99.90;;;16.87;66.33;95427.19;6176202;23;20429;-55
2022/09/07 01:11:11;;;;;;;5.87;4.10;;;16.50;99.90;;;16.85;66.72;95426.47;6176092;23;20745;-55
2022/09/07 01:13:39;;;;;;;4.77;4.43;;;16.50;99.90;;;16.84;66.54;95425.66;6176346;23;20421;-56
2022/09/07 01:16:12;;;;;;;6.77;5.27;;;16.50;99.90;;;16.83;66.91;95426.63;6175469;23;20489;-57
2022/09/07 01:18:44;;;;;;;7.37;4.50;;;16.50;99.90;;;16.82;67.00;95417.03;6176141;23;20680;-59
2022/09/07 01:21:23;;;;;;;5.83;4.77;;;16.50;99.90;;;16.82;67.18;95430.31;6176294;23;20824;-55
2022/09/07 01:24:41;;;;;;;5.53;4.23;;;16.40;99.90;;;16.82;67.13;95422.34;6175867;23;20508;-55
2022/09/07 01:27:50;;;;;;;5.30;4.80;;;16.50;99.90;;;16.82;67.45;95421.50;6119447;23;20468;-53
2022/09/07 01:30:17;;;;;;;4.17;3.77;;;16.50;99.90;;;16.79;66.84;95417.34;6079982;23;20507;-54
2022/09/07 01:33:04;;;;;;;7.33;4.33;;;16.40;99.90;;;16.79;67.27;95417.34;6175938;23;20405;-55
2022/09/07 01:35:38;;;;;;;5.90;4.80;;;16.40;99.90;;;16.77;66.78;95415.84;6175792;23;20413;-55
2022/09/07 01:38:09;;;;;;;7.37;5.17;;;16.40;99.90;;;16.76;67.03;95419.50;6175362;23;20432;-54
2022/09/07 01:40:42;;;;;;;6.40;4.30;;;16.40;99.90;;;16.76;67.33;95423.00;6175758;23;20401;-55
2022/09/07 01:43:15;;;;;;;4.57;4.17;;;16.40;99.90;;;16.74;67.44;95424.97;6176128;23;20402;-55
2022/09/07 01:45:42;;;;;;;9.63;5.93;;;16.40;99.90;;;16.75;67.35;95426.63;6175390;23;20390;-55
2022/09/07 01:48:11;;;;;;;4.30;3.93;;;16.40;99.90;;;16.75;67.14;95425.81;6176004;23;20409;-55
2022/09/07 01:50:41;;;;;;;11.50;5.53;;;16.40;99.90;;;16.75;67.59;95431.94;6177234;23;20456;-56
2022/09/07 01:53:09;;;;;;;10.90;4.83;;;16.40;99.90;;;16.74;67.34;95429.47;6177746;23;20402;-55
2022/09/07 01:55:38;;;;;;;6.53;4.73;;;16.40;99.90;;;16.74;67.77;95424.16;6177665;23;20418;-57
2022/09/07 01:58:10;;;;;;;5.00;4.50;;;16.40;99.90;;;16.72;67.69;95421.66;6177536;23;20484;-54
2022/09/07 02:00:38;;;;;;;9.37;4.00;;;16.40;99.90;;;16.70;67.60;95414.84;6177700;23;20393;-54
2022/09/07 02:03:09;;;;;;;4.40;4.10;;;16.40;99.90;;;16.67;67.76;95414.19;6177725;23;20406;-55
2022/09/07 02:05:39;;;;;;;5.47;4.87;;;16.40;99.90;;;16.66;67.51;95412.50;6177211;23;20389;-55
2022/09/07 02:08:09;;;;;;;7.07;4.90;;;16.30;99.90;;;16.65;67.61;95410.88;6177412;23;20398;-55
2022/09/07 02:10:39;;;;;;;9.63;4.90;;;16.30;99.90;;;16.63;68.09;95412.00;6177458;23;20979;-54
2022/09/07 02:13:11;;;;;;;13.03;5.60;;;16.30;99.90;;;16.61;67.56;95414.84;6176818;23;20401;-53
2022/09/07 02:15:43;;;;;;;6.77;5.63;;;16.30;99.90;;;16.58;67.66;95415.16;6178007;23;20691;-55
2022/09/07 02:18:11;;;;;;;5.33;4.60;;;16.20;99.90;;;16.59;67.96;95411.53;6177284;23;20724;-55
2022/09/07 02:20:39;;;;;;;6.17;5.47;;;16.30;99.90;;;16.59;68.03;95415.97;6177326;23;20914;-56
2022/09/07 02:23:09;;;;;;;5.93;4.80;;;16.20;99.90;;;16.57;67.63;95417.97;6177389;23;20413;-54
2022/09/07 02:25:38;;;;;;;5.00;4.57;;;16.20;99.90;;;16.56;67.68;95417.16;6178007;23;20405;-55
2022/09/07 02:28:08;;;;;;;6.40;5.90;;;16.20;99.90;;;16.56;67.88;95416.31;6177093;23;20402;-55
2022/09/07 02:30:37;;;;;;;5.73;4.50;;;16.20;99.90;;;16.55;67.60;95412.00;6177377;23;20492;-56
2022/09/07 02:33:04;;;;;;;7.83;4.50;;;16.20;99.90;;;16.54;67.93;95405.03;6176940;23;20406;-55
2022/09/07 02:35:31;;;;;;;5.10;4.70;;;16.20;99.90;;;16.55;67.84;95409.34;6177190;23;20472;-55
2022/09/07 02:37:59;;;;;;;24.23;5.13;;;16.20;99.90;;;16.52;67.84;95405.19;6176908;23;20961;-55
2022/09/07 02:40:26;;;;;;;6.53;5.57;;;16.20;99.90;;;16.51;67.90;95402.69;6177564;23;20466;-55
2022/09/07 02:42:54;;;;;;;7.07;5.53;;;16.20;99.90;;;16.50;68.16;95407.19;6177243;23;20444;-54
2022/09/07 02:45:21;;;;;;;5.20;4.80;;;16.20;99.90;;;16.50;68.10;95407.19;6177522;23;20989;-54
2022/09/07 02:48:05;;;;;;;5.90;5.30;;;16.20;99.90;;;16.48;67.87;95406.50;6176815;23;20401;-55
2022/09/07 02:50:47;;;;;;;10.00;6.00;;;16.10;99.90;;;16.47;68.05;95408.34;6177512;23;20440;-55
2022/09/07 02:53:33;;;;;;;8.63;5.00;;;16.10;99.90;;;16.46;68.21;95411.97;6177124;23;20553;-55
2022/09/07 02:56:07;;;;;;;5.00;4.60;;;16.10;99.90;;;16.45;68.35;95414.78;6177260;23;20452;-55
2022/09/07 02:58:37;;;;;;;9.40;4.53;;;16.10;99.90;;;16.44;68.10;95411.31;6177071;23;20484;-55
2022/09/07 03:01:08;;;;;;;5.87;5.33;;;16.10;99.90;;;16.42;67.91;95413.31;6176616;23;20980;-54
2022/09/07 03:03:42;;;;;;;9.40;4.73;;;16.10;99.90;;;16.40;68.29;95417.94;6177579;23;20480;-56
2022/09/07 03:06:16;;;;;;;7.00;4.70;;;16.10;99.90;;;16.39;68.15;95410.97;6177191;23;20481;-54
2022/09/07 03:08:46;;;;;;;6.60;4.80;;;16.00;99.90;;;16.37;68.10;95418.25;6177101;23;20426;-55
2022/09/07 03:11:14;;;;;;;8.33;5.03;;;16.00;99.90;;;16.36;68.06;95413.97;6176684;23;20433;-56
2022/09/07 03:13:41;;;;;;;5.33;4.87;;;16.00;99.90;;;16.35;68.01;95414.13;6178575;23;20993;-55
2022/09/07 03:16:12;;;;;;;5.40;4.87;;;16.00;99.90;;;16.33;68.23;95427.56;6176963;23;20409;-52
2022/09/07 03:18:43;;;;;;;6.70;4.90;;;16.00;99.90;;;16.33;68.00;95413.44;6176752;23;20425;-56
2022/09/07 03:21:10;;;;;;;5.50;4.97;;;16.00;99.90;;;16.30;68.23;95417.25;6177012;23;20385;-55
2022/09/07 03:23:37;;;;;;;6.37;5.00;;;16.00;99.90;;;16.28;68.02;95424.53;6176329;23;20774;-61
2022/09/07 03:26:05;;;;;;;7.87;4.60;;;15.90;99.90;;;16.26;68.29;95416.72;6176246;23;20448;-54
2022/09/07 03:28:32;;;;;;;6.10;4.87;;;15.90;99.90;;;16.25;68.42;95425.72;6176360;23;20422;-57
2022/09/07 03:31:00;;;;;;;4.70;4.30;;;15.90;99.90;;;16.25;68.44;95424.84;6176245;23;20588;-55
2022/09/07 03:33:28;;;;;;;7.20;5.37;;;15.90;99.90;;;16.25;68.40;95431.03;6176125;23;20414;-57
2022/09/07 03:36:01;;;;;;;7.50;5.17;;;15.90;99.90;;;16.29;68.13;95429.69;6176707;23;20452;-58
2022/09/07 03:38:29;;;;;;;6.40;4.87;;;15.90;99.90;;;16.29;68.08;95426.22;6176766;23;20421;-55
2022/09/07 03:41:00;;;;;;;7.97;6.47;;;15.90;99.90;;;16.27;67.94;95429.03;6176409;23;20413;-59
2022/09/07 03:43:28;;;;;;;12.53;5.23;;;15.90;99.90;;;16.27;67.77;95433.50;6176260;23;20476;-57
2022/09/07 03:45:59;;;;;;;6.20;5.70;;;15.90;99.90;;;16.24;67.82;95437.31;6176538;23;20404;-59
2022/09/07 03:48:26;;;;;;;6.00;5.43;;;15.90;99.90;;;16.23;67.55;95443.59;6176201;23;20954;-56
2022/09/07 03:50:59;;;;;;;6.27;5.77;;;15.90;99.90;;;16.22;67.90;95435.78;6176153;23;20455;-55
2022/09/07 03:53:26;;;;;;;5.83;5.23;;;15.90;99.90;;;16.20;67.67;95437.78;6175505;23;20425;-57
2022/09/07 03:55:58;;;;;;;5.37;4.63;;;15.90;99.90;;;16.18;67.63;95434.47;6175873;23;20910;-54
2022/09/07 03:58:25;;;;;;;7.10;5.17;;;15.80;99.90;;;16.15;67.65;95440.09;6175201;23;20417;-54
2022/09/07 04:00:52;;;;;;;18.27;5.83;;;15.80;99.90;;;16.11;68.03;95437.78;6173743;23;20402;-52
2022/09/07 04:03:19;;;;;;;5.03;4.63;;;15.80;99.90;;;16.07;67.74;95439.06;6175498;23;20410;-55
2022/09/07 04:05:47;;;;;;;6.40;3.77;;;15.80;99.90;;;16.05;67.73;95434.91;6176181;23;20780;-57
2022/09/07 04:08:15;;;;;;;4.53;3.87;;;15.80;99.90;;;16.02;67.81;95436.06;6176232;23;20406;-54
2022/09/07 04:10:42;;;;;;;7.00;5.20;;;15.70;99.90;;;15.98;67.97;95440.03;6175634;23;20507;-57
2022/09/07 04:13:10;;;;;;;9.40;5.47;;;15.70;99.90;;;15.94;67.81;95443.97;6175423;23;20405;-57
2022/09/07 04:15:37;;;;;;;7.37;4.17;;;15.60;99.90;;;15.92;67.87;95446.78;6175918;23;20412;-56
2022/09/07 04:18:04;;;;;;;4.17;3.77;;;15.60;99.90;;;15.91;67.92;95444.28;6175593;23;20401;-56
2022/09/07 04:20:31;;;;;;;4.97;4.50;;;15.60;99.90;;;15.90;67.92;95450.63;6176232;23;20414;-56
2022/09/07 04:22:59;;;;;;;15.23;5.10;;;15.60;99.90;;;15.90;67.80;95442.66;6176160;23;20417;-57
2022/09/07 04:25:27;;;;;;;4.37;4.03;;;15.60;99.90;;;15.92;67.73;95443.31;6175820;23;20487;-56
2022/09/07 04:27:57;;;;;;;6.43;4.60;;;15.60;99.90;;;15.93;67.65;95445.00;6176428;23;20401;-56
2022/09/07 04:30:24;;;;;;;6.63;4.70;;;15.60;99.90;;;15.92;67.57;95445.97;6175515;23;20459;-57
2022/09/07 04:32:51;;;;;;;5.30;4.40;;;15.60;99.90;;;15.93;67.44;95447.63;6174924;23;20483;-55
2022/09/07 04:35:18;;;;;;;6.60;4.70;;;15.60;99.90;;;15.93;67.29;95448.47;6175873;23;20430;-56
2022/09/07 04:37:45;;;;;;;14.43;4.30;;;15.60;99.90;;;15.94;67.63;95449.28;6176395;23;20456;-56
2022/09/07 04:40:13;;;;;;;5.00;4.50;;;15.60;99.90;;;16.05;67.14;95451.69;6175347;23;20425;-56
2022/09/07 04:42:41;;;;;;;7.20;5.60;;;15.70;99.90;;;16.26;66.75;95463.69;6176298;23;20406;-58
2022/09/07 04:45:09;;;;;;;6.00;3.93;;;15.90;99.90;;;16.40;66.41;95460.41;6174889;23;20421;-57
2022/09/07 04:47:36;;;;;;;7.37;4.33;;;16.00;99.90;;;16.52;65.73;95454.81;6173484;23;20724;-56
2022/09/07 04:50:04;;;;;;;5.37;4.07;;;16.20;99.90;;;16.62;65.63;95458.16;6173850;23;20425;-55
2022/09/07 04:52:31;;;;;;;15.83;4.70;;;16.20;99.90;;;16.70;65.36;95460.00;6173803;23;20460;-56
2022/09/07 04:54:59;;;;;;;6.40;4.67;;;16.30;99.90;;;16.75;65.50;95458.53;6173254;23;20422;-53
2022/09/07 04:57:26;;;;;;;5.60;5.00;;;16.40;99.90;;;16.76;64.97;95454.03;6173346;23;20460;-57
2022/09/07 04:59:54;;;;;;;12.00;4.83;;;16.40;99.90;;;16.74;64.89;95456.84;6174032;23;20503;-55
2022/09/07 05:02:22;;;;;;;5.30;4.87;;;16.40;99.90;;;16.72;65.14;95455.38;6175633;23;20409;-58
2022/09/07 05:04:49;;;;;;;4.67;4.37;;;16.40;99.90;;;16.67;65.14;95456.69;6175507;23;20525;-57
2022/09/07 05:07:16;;;;;;;13.67;5.50;;;16.40;99.90;;;16.69;64.97;95472.44;6174495;23;20410;-56
2022/09/07 05:09:43;;;;;;;9.67;4.10;;;16.30;99.90;;;16.69;65.15;95472.44;6175735;23;20487;-57
2022/09/07 05:12:10;;;;;;;4.83;4.43;;;16.30;99.90;;;16.72;64.80;95471.31;6175085;23;21071;-56
2022/09/07 05:14:37;;;;;;;4.27;3.90;;;16.40;99.90;;;16.78;64.91;95471.47;6175605;23;20937;-55
2022/09/07 05:17:06;;;;;;;6.03;5.03;;;16.40;99.90;;;16.85;64.61;95464.53;6175481;23;20401;-57
2022/09/07 05:19:33;;;;;;;6.03;4.60;;;16.50;99.90;;;16.90;64.70;95466.72;6176078;23;20483;-58
2022/09/07 05:22:01;;;;;;;7.10;5.23;;;16.50;99.90;;;16.94;64.58;95461.91;6175700;23;20412;-57
2022/09/07 05:24:28;;;;;;;5.47;4.83;;;16.60;99.90;;;16.96;64.25;95471.38;6177949;23;20425;-56
2022/09/07 05:26:55;;;;;;;6.50;4.97;;;16.60;99.90;;;17.00;64.30;95466.56;6177575;23;20464;-57
2022/09/07 05:29:23;;;;;;;8.23;5.97;;;16.60;99.90;;;17.05;64.41;95464.22;6178018;23;20429;-54
2022/09/07 05:31:50;;;;;;;6.40;5.03;;;16.70;99.90;;;17.11;64.41;95463.56;6178072;23;20984;-55
2022/09/07 05:34:19;;;;;;;4.83;4.47;;;16.70;99.80;;;17.22;64.11;95459.75;6177424;23;20495;-56
2022/09/07 05:36:46;;;;;;;6.53;4.87;;;16.80;99.80;;;17.33;64.16;95461.22;6177971;23;20408;-57
2022/09/07 05:39:13;;;;;;;6.80;5.10;;;16.90;99.80;;;17.47;63.54;95460.56;6177180;23;20479;-57
2022/09/07 05:41:40;;;;;;;8.23;5.10;;;17.00;99.50;;;17.64;62.66;95468.53;6177935;23;20408;-56
2022/09/07 05:44:08;;;;;;;12.43;5.10;;;17.20;99.10;;;17.81;62.60;95458.69;6177672;23;20499;-58
2022/09/07 05:46:35;;;;;;;10.30;5.23;;;17.40;99.00;;;18.03;62.42;95462.47;6177847;23;20402;-57
2022/09/07 05:49:02;;;;;;;6.40;4.90;;;17.50;98.90;;;18.27;61.46;95458.91;6177245;23;20421;-55
2022/09/07 05:51:31;;;;;;;7.90;6.10;;;17.80;98.60;;;18.51;61.53;95460.59;6177996;23;20455;-56
2022/09/07 05:53:58;;;;;;;11.20;5.30;;;18.00;98.30;;;18.76;60.72;95457.78;6177973;23;20680;-53
2022/09/07 05:56:25;;;;;;;8.87;5.50;;;18.20;98.00;;;18.99;59.79;95457.84;6177682;23;20526;-56
2022/09/07 05:58:53;;;;;;;15.03;5.60;;;18.50;97.40;;;19.15;58.94;95455.06;6177961;23;20425;-58
2022/09/07 06:01:20;;;;;;;9.40;5.37;;;18.60;96.90;;;19.35;58.93;95458.06;6177214;23;20632;-56
2022/09/07 06:03:47;;;;;;;10.67;5.63;;;18.90;96.80;;;19.61;58.87;95462.19;6177523;23;20429;-57
2022/09/07 06:06:15;;;;;;;6.20;5.60;;;19.10;96.50;;;19.87;58.30;95456.41;6176867;23;20516;-57
2022/09/07 06:08:47;;;;;;;7.53;5.10;;;19.30;96.00;;;20.12;57.10;95458.81;6177428;23;20867;-55
2022/09/07 06:11:17;;;;;;;9.57;4.80;;;19.50;95.50;;;20.37;56.47;95461.19;6177023;23;20469;-57
2022/09/07 06:13:44;;;;;;;5.93;4.70;;;19.80;95.00;;;20.64;56.31;95466.91;6177102;23;20890;-58
2022/09/07 06:16:12;;;;;;;12.17;4.93;;;20.00;94.70;;;20.85;54.75;95466.97;6176785;23;20402;-61
2022/09/07 06:18:41;;;;;;;20.20;5.13;;;20.30;93.50;;;21.05;54.56;95455.63;6177521;23;20488;-57
2022/09/07 06:21:09;;;;;;;5.00;4.60;;;20.50;92.90;;;21.26;54.16;95463.66;6177165;23;20405;-54
2022/09/07 06:23:38;;;;;;;12.63;5.57;;;20.70;92.80;;;21.50;53.82;95464.28;6176954;23;20426;-55
2022/09/07 06:26:07;;;;;;;12.17;6.03;;;20.90;92.50;;;21.71;52.96;95462.63;6176852;23;20405;-54
2022/09/07 06:28:35;;;;;;;5.70;4.60;;;21.10;91.70;;;21.90;52.87;95466.47;6176932;23;20422;-57
2022/09/07 06:31:03;;;;;;;4.60;3.27;;;21.30;91.60;;;22.06;52.49;95470.66;6176858;23;20445;-55
2022/09/07 06:33:30;;;;;;;4.73;4.33;;;21.50;90.80;;;22.22;51.05;95459.66;6176578;23;20548;-58
2022/09/07 06:35:58;;;;;;;6.57;3.80;;;21.60;89.00;;;22.42;51.18;95467.81;6177036;23;20737;-57
2022/09/07 06:38:25;;;;;;;9.27;4.20;;;21.80;88.30;;;22.60;49.83;95475.31;6176473;23;20427;-57
2022/09/07 06:40:52;;;;;;;6.70;3.13;;;22.00;86.90;;;22.77;49.61;95467.75;6177017;23;20393;-58
2022/09/07 06:43:21;;;;;;;11.90;4.10;;;22.20;86.70;;;23.03;50.26;95466.16;6176681;23;20409;-54
2022/09/07 06:45:53;;;;;;;6.27;3.73;;;22.40;86.50;;;23.32;49.16;95472.25;6177067;23;20727;-56
2022/09/07 06:48:20;;;;;;;7.60;3.40;;;22.60;85.00;;;23.60;48.30;95472.88;6177344;23;20950;-54
2022/09/07 06:50:56;;;;;;;14.43;3.73;;;22.90;83.80;;;23.93;47.88;95477.44;6179532;23;20791;-55
2022/09/07 06:53:24;;;;;;;5.47;3.60;;;23.20;81.50;;;24.21;47.48;95483.59;6177053;23;20912;-56
2022/09/07 06:55:51;;;;;;;4.27;3.87;;;23.50;80.70;;;24.45;46.60;95474.84;6177011;23;20819;-57
2022/09/07 06:58:20;;;;;;;9.10;2.70;;;23.80;79.10;;;24.70;46.54;95480.38;6176967;23;20795;-55
2022/09/07 07:00:47;;;;;;;11.93;3.20;;;24.00;77.50;;;24.99;45.99;95480.88;6176886;23;20405;-58
2022/09/07 07:03:14;;;;;;;6.77;2.27;;;24.30;77.00;;;25.26;44.41;95478.00;6176713;23;20401;-56
2022/09/07 07:05:41;;;;;;;5.30;2.70;;;24.50;73.60;;;25.38;44.02;95488.97;6175939;23;20401;-57
2022/09/07 07:08:09;;;;;;;12.83;2.83;;;24.80;71.40;;;25.53;43.80;95485.94;6176792;23;20401;-55
2022/09/07 07:10:39;;;;;;;2.70;2.50;;;24.90;71.00;;;25.70;43.50;95481.69;6177299;23;20405;-55
2022/09/07 07:13:06;;;;;;;11.90;3.37;;;25.10;70.60;;;25.98;43.36;95479.59;6175899;23;20816;-56
2022/09/07 07:15:35;;;;;;;10.50;2.50;;;25.20;69.70;;;26.23;42.36;95479.56;6177004;23;20467;-53
2022/09/07 07:18:02;;;;;;;7.90;2.53;;;25.50;67.20;;;26.31;41.99;95473.88;6176365;23;20562;-57
2022/09/07 07:20:29;;;;;;;7.03;2.30;;;25.60;65.70;;;26.39;41.78;95486.25;6176455;23;20471;-58
2022/09/07 07:22:56;;;;;;;3.83;2.00;;;25.70;64.60;;;26.54;41.88;95480.47;6176904;23;20770;-54
2022/09/07 07:25:23;;;;;;;4.33;2.10;;;25.80;65.50;;;26.76;41.44;95470.91;6176638;23;20436;-58
2022/09/07 07:27:51;;;;;;;7.13;2.30;;;26.00;64.70;;;27.05;40.72;95478.41;6176470;23;20429;-55
2022/09/07 07:30:18;;;;;;;5.23;2.47;;;26.30;63.60;;;27.42;40.79;95489.16;6176768;23;20427;-58
2022/09/07 07:32:47;;;;;;;5.60;1.93;;;26.60;62.90;;;27.86;39.84;95487.84;6175811;23;20449;-54
2022/09/07 07:35:14;;;;;;;3.53;2.30;;;27.10;62.20;;;28.18;39.57;95490.25;6177035;23;20433;-57
2022/09/07 07:37:42;;;;;;;2.50;2.30;;;27.40;59.70;;;28.41;38.60;95488.56;6176660;23;20493;-58
2022/09/07 07:40:11;;;;;;;4.80;2.13;;;27.70;58.30;;;28.52;37.57;95493.16;6175772;23;20420;-57
2022/09/07 07:42:40;;;;;;;14.00;2.37;;;27.80;56.80;;;28.74;38.62;95487.97;6176466;23;20401;-57
2022/09/07 07:45:08;;;;;;;2.30;1.93;;;27.90;57.50;;;29.13;37.92;95479.25;6176892;23;21019;-58
2022/09/07 07:47:36;;;;;;;3.70;2.57;;;28.30;56.80;;;29.31;37.20;95484.50;6177537;23;20479;-57
2022/09/07 07:50:05;;;;;;;3.27;2.50;;;28.60;55.50;;;29.41;36.21;95489.28;6176507;23;20421;-58
2022/09/07 07:52:33;;;;;;;8.60;2.70;;;28.90;54.20;;;29.39;36.34;95477.88;6176473;23;20449;-56
2022/09/07 07:55:01;;;;;;;2.37;2.20;;;29.00;54.10;;;29.49;36.29;95486.16;6176933;23;20476;-57
2022/09/07 07:57:28;;;;;;;4.73;3.13;;;29.20;52.60;;;29.47;35.34;95484.78;6177895;23;20405;-56
2022/09/07 07:59:55;;;;;;;5.23;2.80;;;29.30;51.20;;;29.36;35.66;95485.66;6177387;23;20624;-57
2022/09/07 08:02:23;;;;;;;3.63;2.53;;;29.20;52.00;;;29.38;36.78;95486.25;6176219;23;20415;-57
2022/09/07 08:04:51;;;;;;;5.70;2.60;;;29.10;52.80;;;29.78;36.13;95488.84;6176757;23;20738;-56
2022/09/07 08:07:20;;;;;;;3.17;2.50;;;29.30;53.30;;;30.26;36.10;95481.19;6175806;23;20476;-56
2022/09/07 08:09:48;;;;;;;4.67;2.67;;;29.80;52.60;;;30.69;35.35;95478.81;6176171;23;20428;-54
2022/09/07 08:12:17;;;;;;;4.90;2.63;;;30.20;52.40;;;31.16;34.75;95482.94;6176181;23;20856;-56
2022/09/07 08:14:44;;;;;;;4.53;2.43;;;30.70;51.70;;;31.62;34.34;95486.97;6175507;23;20511;-56
2022/09/07 08:17:13;;;;;;;3.33;2.63;;;31.10;51.10;;;32.12;34.21;95478.69;6175783;23;20170;-56
2022/09/07 08:19:40;;;;;;;6.20;3.20;;;31.70;50.10;;;32.54;33.59;95480.59;6176451;23;20198;-58
2022/09/07 08:22:08;;;;;;;9.17;3.13;;;32.20;49.00;;;32.82;32.56;95479.38;6176552;23;20170;-57
2022/09/07 08:24:36;;;;;;;4.67;2.60;;;32.60;47.40;;;32.85;31.33;95470.69;6176475;23;20205;-56
2022/09/07 08:27:04;;;;;;;5.47;2.80;;;32.80;45.30;;;32.77;32.04;95468.47;6175943;23;20174;-57
2022/09/07 08:29:31;;;;;;;2.60;2.40;;;32.80;45.70;;;32.68;32.07;95464.63;6176909;23;20558;-58
2022/09/07 08:31:58;;;;;;;6.93;2.63;;;32.80;45.90;;;32.77;32.63;95473.91;6175990;23;20545;-58
2022/09/07 08:34:26;;;;;;;5.03;3.10;;;32.80;46.00;;;33.04;32.24;95476.47;6175467;23;20197;-57
2022/09/07 08:36:53;;;;;;;3.40;3.10;;;33.00;45.90;;;33.33;31.85;95473.31;6176029;23;20169;-58
2022/09/07 08:39:21;;;;;;;3.67;3.37;;;33.20;45.60;;;33.61;31.55;95468.44;6176130;23;20201;-56
2022/09/07 08:42:04;;;;;;;4.10;2.35;;;33.50;44.90;;;33.80;30.88;95463.28;6176069;23;20173;-57
2022/09/07 08:44:33;;;;;;;4.60;2.33;;;33.60;44.50;;;33.82;30.51;95454.84;6176139;23;20201;-56
2022/09/07 08:47:03;;;;;;;5.20;2.97;;;33.60;43.80;;;33.68;30.71;95458.09;6176482;23;20173;-58
2022/09/07 08:49:36;;;;;;;7.03;2.80;;;33.40;44.00;;;33.61;30.44;95454.00;6175838;23;20221;-56
2022/09/07 08:52:05;;;;;;;4.30;2.90;;;33.30;43.20;;;33.41;30.81;95450.94;6175469;23;20212;-56
2022/09/07 08:54:33;;;;;;;3.60;2.77;;;33.10;43.80;;;33.34;30.68;95455.03;6176411;23;20189;-55
2022/09/07 08:57:04;;;;;;;7.03;2.90;;;32.90;44.00;;;33.30;31.26;95445.78;6175291;23;20248;-55
2022/09/07 08:59:37;;;;;;;7.80;3.47;;;32.80;44.40;;;33.48;31.25;95445.25;6176297;23;20201;-57
2022/09/07 09:02:13;;;;;;;4.00;2.78;;;32.80;44.40;;;33.69;30.48;95434.34;6175698;23;20699;-56
2022/09/07 09:04:40;;;;;;;7.30;2.80;;;33.00;44.00;;;33.86;30.86;95429.44;6175581;23;20259;-56
2022/09/07 09:07:14;;;;;;;7.72;2.72;;;33.20;44.10;;;34.02;29.55;95429.44;6174940;23;20173;-58
2022/09/07 09:09:59;;;;;;;3.95;2.63;;;33.30;43.00;;;33.93;30.05;95431.94;6175730;23;20193;-58
2022/09/07 09:12:32;;;;;;;11.00;2.90;;;33.30;42.90;;;33.67;30.27;95415.53;6175448;23;20189;-53
2022/09/07 09:15:10;;;;;;;5.87;3.67;;;33.10;43.00;;;33.52;30.24;95424.50;6175721;23;20263;-57
2022/09/07 09:17:40;;;;;;;3.57;2.90;;;32.90;43.50;;;33.31;30.08;95418.25;6175643;23;20655;-54
2022/09/07 09:20:18;;;;;;;5.47;3.80;;;32.70;43.00;;;32.74;30.48;95419.16;6174722;23;20256;-53
2022/09/07 09:22:45;;;;;;;4.50;3.27;;;32.20;42.90;;;32.18;31.01;95417.78;6175581;23;20232;-55
2022/09/07 09:25:20;;;;;;;6.83;3.93;;;31.70;43.10;;;31.72;31.34;95415.50;6176003;23;20263;-57
2022/09/07 09:27:48;;;;;;;9.70;4.67;;;31.20;44.00;;;31.48;32.26;95414.19;6175576;23;20196;-55
2022/09/07 09:30:17;;;;;;;4.60;3.63;;;30.90;45.00;;;31.53;32.26;95404.19;6175956;23;20339;-58
2022/09/07 09:32:47;;;;;;;4.97;3.43;;;30.80;45.60;;;31.70;32.28;95406.81;6175161;23;20197;-58
2022/09/07 09:35:28;;;;;;;8.93;3.27;;;30.90;45.70;;;31.99;31.43;95409.16;6175722;23;20834;-55
2022/09/07 09:37:56;;;;;;;8.70;2.93;;;31.10;44.90;;;32.07;31.88;95411.41;6176428;23;20162;-57
2022/09/07 09:40:25;;;;;;;25.27;3.67;;;31.30;45.10;;;32.09;31.85;95397.53;6175520;23;20585;-58
2022/09/07 09:43:02;;;;;;;7.23;3.70;;;31.40;44.90;;;32.28;31.27;95396.03;6177209;23;20182;-57
2022/09/07 09:45:31;;;;;;;3.23;2.93;;;31.50;44.60;;;32.45;31.65;95397.75;6176192;23;20600;-56
2022/09/07 09:47:58;;;;;;;4.90;3.27;;;31.70;44.70;;;32.45;31.07;95395.84;6175815;23;20170;-58
2022/09/07 09:50:27;;;;;;;6.30;4.27;;;31.80;44.10;;;32.41;31.49;95400.19;6176403;23;20193;-58
2022/09/07 09:52:54;;;;;;;5.67;3.37;;;31.70;44.50;;;32.49;31.46;95393.41;6176611;23;20218;-56
2022/09/07 09:55:27;;;;;;;3.70;3.40;;;31.70;44.60;;;32.66;31.38;95385.88;6176892;23;20461;-57
2022/09/07 09:57:57;;;;;;;7.80;3.78;;;31.80;44.50;;;32.93;30.55;95386.78;6176664;23;20574;-56
2022/09/07 10:00:26;;;;;;;12.13;4.30;;;32.00;44.10;;;33.11;30.73;95391.72;6177353;23;20351;-59
2022/09/07 10:03:07;;;;;;;4.15;3.75;;;32.30;44.10;;;33.35;31.18;95383.06;6175843;23;20276;-57
2022/09/07 10:05:37;;;;;;;6.75;3.05;;;32.50;44.10;;;33.61;30.55;95377.63;6174939;23;20562;-58
2022/09/07 10:08:14;;;;;;;5.63;3.85;;;32.70;44.10;;;33.88;30.41;95377.31;6175537;23;20649;-55
2022/09/07 10:10:51;;;;;;;3.30;2.90;;;33.00;43.80;;;33.91;29.03;95372.16;6177474;23;20166;-57
2022/09/07 10:13:21;;;;;;;9.05;3.30;;;33.10;42.10;;;33.58;29.54;95371.59;6176999;23;20185;-56
2022/09/07 10:15:53;;;;;;;7.72;3.42;;;33.00;42.10;;;33.27;30.03;95362.59;6177162;23;20177;-57
2022/09/07 10:18:26;;;;;;;6.00;3.30;;;32.70;42.10;;;33.19;30.47;95357.69;6176569;23;20236;-57
2022/09/07 10:20:53;;;;;;;4.97;2.90;;;32.60;42.70;;;33.13;30.25;95364.19;6176742;23;20638;-55
2022/09/07 10:23:22;;;;;;;3.50;3.20;;;32.50;42.90;;;33.16;30.72;95358.19;6175341;23;20734;-61
2022/09/07 10:25:49;;;;;;;5.15;3.17;;;32.50;43.40;;;33.02;29.90;95344.28;6176415;23;20261;-57
2022/09/07 10:28:21;;;;;;;12.77;5.40;;;32.40;42.30;;;32.76;30.37;95348.88;6176670;23;20611;-59